Aeroporto :
LOGIN :

Iscrizione | Disclaimer

   EN    FR    IT 

 










Sommario :    VFR   VFR Marginale   IFR   IFR Intensivo   IFR Molto Intensivo
Visibilità : 
Base nubi : 
>= 8 km
>= 3000ft
5 / 8 km
1000 / 3000 ft
1500m / 5 km
500 / 1000 ft
800 / 1500m
200 / 500 ft
< 800m
< 200 ft
Simboli :   Temporali  Nebbia  Neve Forte  Precipitazioni Forti  Vento > 20 kt
SIGMETs :   Varie  Temporali  Ghiacco  Turbolenza  Onda orograficha  Ceneri Vulcaniche






- Altitudine del aeroporto : 538 ft
- Codice IATA : TNF


LFPN - Toussus Le Noble

ULTIMO METAR :
  • 181700Z AUTO 36009KT 9999 FEW015 BKN140 05/03 Q1028 NOSIG

METARs OBSOLETI :
  • 181630Z AUTO 36007KT 9999 FEW016 BKN040 06/02 Q1028 NOSIG
  • 181600Z AUTO 34004KT 9999 BKN040 07/03 Q1028 NOSIG
  • 181530Z AUTO 36007KT 9999 FEW024 BKN038 07/02 Q1028 NOSIG
  • 181500Z AUTO 32006KT 9999 SCT039 08/03 Q1027 NOSIG
  • 181430Z AUTO 33004KT CAVOK 07/03 Q1027 NOSIG

TAF TAF LFPN
Valido dal 18 a 15 ore il 19 a 00 ore UTC


181400Z 1815/1824 VRB03KT 9999 SCT025 BKN050
TEMPO 1819/1824 4000 BR
ATIS : +33 1 39 56 54 70



MetMap, La meteo Aeronautica in un colpo d'occhio ! - Copyright ORBIFLY Dicembre 2007 - Disclaimer

ORBIFLY MET'MAP TEAM :

Programmazione e sviluppo : Alexandra Zaïnal
Concezione : Baudouin d'Aumeries
Aiuto per la programmazione : Marc-Olivier Méhu
Supporto tecnico e logistico : Manuel Goepfert
Aiuto per la traduzione : Arnaldo La Scala

Contatto : metmap@orbifly.com




FONTI E CREDITI :

   NOAA